createdAt,value
2019-05-26T00:00:01.328Z,1010.49
2019-05-26T00:01:01.256Z,1010.50
2019-05-26T00:02:01.164Z,1010.43
2019-05-26T00:03:01.090Z,1010.46
2019-05-26T00:04:01.003Z,1010.48
2019-05-26T00:05:00.928Z,1010.46
2019-05-26T00:06:00.840Z,1010.47
2019-05-26T00:07:00.765Z,1010.45
2019-05-26T00:08:00.686Z,1010.43
2019-05-26T00:09:00.605Z,1010.43
2019-05-26T00:10:00.520Z,1010.41
2019-05-26T00:11:00.434Z,1010.39
2019-05-26T00:12:00.353Z,1010.38
2019-05-26T00:13:00.266Z,1010.42
2019-05-26T00:14:00.205Z,1010.35
2019-05-26T00:15:00.109Z,1010.35
2019-05-26T00:16:00.036Z,1010.38
2019-05-26T00:16:59.941Z,1010.37
2019-05-26T00:17:59.865Z,1010.34
2019-05-26T00:18:59.780Z,1010.33
2019-05-26T00:19:59.704Z,1010.28
2019-05-26T00:20:59.616Z,1010.29
2019-05-26T00:21:59.542Z,1010.31
2019-05-26T00:22:59.454Z,1010.29
2019-05-26T00:23:59.380Z,1010.32
2019-05-26T00:24:59.295Z,1010.31
2019-05-26T00:25:59.205Z,1010.25
2019-05-26T00:26:59.130Z,1010.23
2019-05-26T00:27:59.042Z,1010.28
2019-05-26T00:28:58.968Z,1010.29
2019-05-26T00:29:58.892Z,1010.28
2019-05-26T00:30:58.820Z,1010.25
2019-05-26T00:31:58.731Z,1010.19
2019-05-26T00:32:58.643Z,1010.21
2019-05-26T00:33:58.623Z,1010.21
2019-05-26T00:34:58.481Z,1010.21
2019-05-26T00:35:58.392Z,1010.22
2019-05-26T00:36:58.317Z,1010.21
2019-05-26T00:37:58.231Z,1010.15
2019-05-26T00:38:58.144Z,1010.14
2019-05-26T00:39:58.068Z,1010.14
2019-05-26T00:40:57.981Z,1010.09
2019-05-26T00:41:57.915Z,1010.10
2019-05-26T00:42:57.820Z,1010.12
2019-05-26T00:43:57.743Z,1010.05
2019-05-26T00:44:57.705Z,1010.09
2019-05-26T00:45:57.582Z,1010.11
2019-05-26T00:46:57.496Z,1010.09
2019-05-26T00:47:57.418Z,1010.09
2019-05-26T00:48:57.333Z,1010.06
2019-05-26T00:49:57.258Z,1010.11
2019-05-26T00:50:57.170Z,1010.09
2019-05-26T00:51:57.094Z,1010.09
2019-05-26T00:52:57.122Z,1010.10
2019-05-26T00:53:56.920Z,1010.09
2019-05-26T00:54:56.846Z,1010.10
2019-05-26T00:55:56.769Z,1010.04
2019-05-26T00:56:56.684Z,1010.05
2019-05-26T00:57:56.608Z,1010.03
2019-05-26T00:58:56.521Z,1010.03
2019-05-26T00:59:56.433Z,1010.03
2019-05-26T01:00:56.358Z,1010.04
2019-05-26T01:01:56.554Z,1010.04
2019-05-26T01:02:56.200Z,1010.03
2019-05-26T01:03:56.109Z,1010.00
2019-05-26T01:04:56.024Z,1009.99
2019-05-26T01:05:55.946Z,1010.02
2019-05-26T01:06:55.926Z,1010.01
2019-05-26T01:08:05.882Z,1010.02
2019-05-26T01:08:55.697Z,1010.03
2019-05-26T01:09:55.622Z,1010.02
2019-05-26T01:10:55.535Z,1010.02
2019-05-26T01:11:55.459Z,1009.98
2019-05-26T01:12:55.371Z,1010.03
2019-05-26T01:13:55.296Z,1010.02
2019-05-26T01:14:55.213Z,1010.00
2019-05-26T01:15:55.122Z,1010.00
2019-05-26T01:16:55.981Z,1009.98
2019-05-26T01:17:54.961Z,1009.99
2019-05-26T01:18:54.889Z,1010.00
2019-05-26T01:19:54.797Z,1009.98
2019-05-26T01:20:54.723Z,1009.98
2019-05-26T01:21:54.635Z,1009.96
2019-05-26T01:22:54.563Z,1009.97
2019-05-26T01:23:54.473Z,1009.96
2019-05-26T01:24:54.387Z,1009.98
2019-05-26T01:25:54.321Z,1010.01
2019-05-26T01:26:54.223Z,1010.01
2019-05-26T01:27:54.147Z,1010.01
2019-05-26T01:28:54.063Z,1009.97
2019-05-26T01:29:53.988Z,1009.98
2019-05-26T01:30:53.897Z,1009.95
2019-05-26T01:31:53.824Z,1009.99
2019-05-26T01:32:53.737Z,1009.99
2019-05-26T01:33:53.649Z,1009.97
2019-05-26T01:34:53.574Z,1009.99
2019-05-26T01:35:53.488Z,1009.99
2019-05-26T01:36:53.412Z,1009.96
2019-05-26T01:37:53.324Z,1009.98
2019-05-26T01:38:53.250Z,1009.93
2019-05-26T01:39:53.165Z,1009.93
2019-05-26T01:40:53.079Z,1009.95
2019-05-26T01:41:52.999Z,1009.92
2019-05-26T01:42:52.916Z,1009.93
2019-05-26T01:43:52.837Z,1009.93
2019-05-26T01:44:52.753Z,1009.97
2019-05-26T01:45:52.676Z,1009.98
2019-05-26T01:46:52.588Z,1009.99
2019-05-26T01:47:52.505Z,1009.90
2019-05-26T01:48:52.425Z,1009.94
2019-05-26T01:49:52.349Z,1009.89
2019-05-26T01:50:52.263Z,1009.91
2019-05-26T01:51:52.180Z,1009.90
2019-05-26T01:52:52.102Z,1009.92
2019-05-26T01:53:52.014Z,1009.91
2019-05-26T01:54:51.927Z,1009.91
2019-05-26T01:55:51.850Z,1009.93
2019-05-26T01:56:51.767Z,1009.93
2019-05-26T01:57:51.689Z,1009.96
2019-05-26T01:58:51.604Z,1009.98
2019-05-26T01:59:51.527Z,1009.96
2019-05-26T02:00:51.441Z,1009.95
2019-05-26T02:01:51.353Z,1009.94
2019-05-26T02:02:51.277Z,1009.94
2019-05-26T02:03:51.193Z,1009.94
2019-05-26T02:04:51.125Z,1009.95
2019-05-26T02:05:51.040Z,1009.94
2019-05-26T02:06:50.951Z,1009.95
2019-05-26T02:07:50.869Z,1009.98
2019-05-26T02:08:50.793Z,1010.03
2019-05-26T02:09:50.706Z,1009.98
2019-05-26T02:10:50.616Z,1009.98
2019-05-26T02:11:50.540Z,1009.95
2019-05-26T02:12:50.452Z,1009.95
2019-05-26T02:13:50.377Z,1009.93
2019-05-26T02:14:50.290Z,1009.92
2019-05-26T02:15:50.204Z,1009.92
2019-05-26T02:16:50.128Z,1009.91
2019-05-26T02:17:50.041Z,1009.92
2019-05-26T02:18:49.967Z,1009.92
2019-05-26T02:19:49.878Z,1009.91
2019-05-26T02:20:49.803Z,1009.93
2019-05-26T02:21:49.717Z,1009.90
2019-05-26T02:22:49.630Z,1009.88
2019-05-26T02:23:49.567Z,1009.89
2019-05-26T02:24:49.469Z,1009.85
2019-05-26T02:25:49.394Z,1009.88
2019-05-26T02:26:49.311Z,1009.88
2019-05-26T02:27:49.232Z,1009.86
2019-05-26T02:28:49.142Z,1009.85
2019-05-26T02:29:49.055Z,1009.84
2019-05-26T02:30:48.980Z,1009.88
2019-05-26T02:31:48.892Z,1009.84
2019-05-26T02:32:48.829Z,1009.82
2019-05-26T02:33:48.730Z,1009.80
2019-05-26T02:34:48.660Z,1009.81
2019-05-26T02:35:48.662Z,1009.79
2019-05-26T02:36:48.483Z,1009.79
2019-05-26T02:37:48.406Z,1009.81
2019-05-26T02:39:01.134Z,1009.82
2019-05-26T02:39:48.243Z,1009.82
2019-05-26T02:40:48.156Z,1009.83
2019-05-26T02:41:48.081Z,1009.83
2019-05-26T02:42:47.997Z,1009.81
2019-05-26T02:43:47.907Z,1009.82
2019-05-26T02:44:47.830Z,1009.85
2019-05-26T02:45:47.744Z,1009.82
2019-05-26T02:46:47.680Z,1009.85
2019-05-26T02:47:47.583Z,1009.84
2019-05-26T02:48:47.507Z,1009.82
2019-05-26T02:49:47.420Z,1009.86
2019-05-26T02:50:47.414Z,1009.86
2019-05-26T02:51:47.257Z,1009.88
2019-05-26T02:52:47.182Z,1009.83
2019-05-26T02:53:47.094Z,1009.86
2019-05-26T02:54:47.021Z,1009.91
2019-05-26T02:55:46.929Z,1009.87
2019-05-26T02:56:46.854Z,1009.84
2019-05-26T02:57:46.765Z,1009.86
2019-05-26T02:58:46.683Z,1009.82
2019-05-26T02:59:46.595Z,1009.88
2019-05-26T03:00:46.523Z,1009.85
2019-05-26T03:02:02.235Z,1009.85
2019-05-26T03:02:46.348Z,1009.89
2019-05-26T03:03:46.278Z,1009.89
2019-05-26T03:04:46.185Z,1009.87
2019-05-26T03:05:46.109Z,1009.88
2019-05-26T03:06:46.028Z,1009.88
2019-05-26T03:07:45.946Z,1009.94
2019-05-26T03:08:45.873Z,1009.93
2019-05-26T03:09:45.772Z,1009.95
2019-05-26T03:10:45.849Z,1009.97
2019-05-26T03:11:45.609Z,1009.97
2019-05-26T03:12:45.542Z,1009.97
2019-05-26T03:13:45.450Z,1009.97
2019-05-26T03:14:45.367Z,1009.95
2019-05-26T03:15:45.285Z,1009.95
2019-05-26T03:16:45.197Z,1009.90
2019-05-26T03:17:45.115Z,1009.90
2019-05-26T03:18:45.041Z,1009.91
2019-05-26T03:19:44.949Z,1009.96
2019-05-26T03:20:44.872Z,1009.92
2019-05-26T03:21:44.799Z,1009.91
2019-05-26T03:22:44.712Z,1009.91
2019-05-26T03:23:44.629Z,1009.89
2019-05-26T03:24:44.535Z,1009.89
2019-05-26T03:25:44.461Z,1009.90
2019-05-26T03:26:44.402Z,1009.89
2019-05-26T03:27:44.300Z,1009.89
2019-05-26T03:28:44.210Z,1009.88
2019-05-26T03:29:44.138Z,1009.87
2019-05-26T03:30:44.069Z,1009.86
2019-05-26T03:31:43.966Z,1009.88
2019-05-26T03:32:43.908Z,1009.84
2019-05-26T03:33:43.810Z,1009.89
2019-05-26T03:34:43.713Z,1009.88
2019-05-26T03:35:43.637Z,1009.84
2019-05-26T03:36:43.550Z,1009.85
2019-05-26T03:37:43.476Z,1009.84
2019-05-26T03:38:43.388Z,1009.84
2019-05-26T03:39:45.899Z,1009.84
2019-05-26T03:40:43.226Z,1009.87
2019-05-26T03:41:43.138Z,1009.86
2019-05-26T03:42:43.061Z,1009.86
2019-05-26T03:43:42.976Z,1009.85
2019-05-26T03:44:42.900Z,1009.93
2019-05-26T03:45:42.830Z,1009.93
2019-05-26T03:46:42.744Z,1009.92
2019-05-26T03:47:42.652Z,1009.95
2019-05-26T03:48:42.570Z,1009.91
2019-05-26T03:49:42.488Z,1009.96
2019-05-26T03:50:42.402Z,1009.95
2019-05-26T03:51:42.328Z,1009.95
2019-05-26T03:52:42.238Z,1009.96
2019-05-26T03:53:42.157Z,1009.93
2019-05-26T03:54:42.078Z,1009.94
2019-05-26T03:55:41.990Z,1009.97
2019-05-26T03:56:41.914Z,1010.00
2019-05-26T03:57:41.827Z,1009.97
2019-05-26T03:58:41.754Z,1010.00
2019-05-26T03:59:41.678Z,1010.01
2019-05-26T04:00:41.578Z,1009.99
2019-05-26T04:01:41.505Z,1009.95
2019-05-26T04:02:41.429Z,1009.96
2019-05-26T04:03:41.352Z,1009.96
2019-05-26T04:04:41.251Z,1009.94
2019-05-26T04:05:41.166Z,1009.95
2019-05-26T04:06:41.090Z,1009.90
2019-05-26T04:07:41.003Z,1009.93
2019-05-26T04:08:40.929Z,1009.88
2019-05-26T04:09:40.840Z,1009.90
2019-05-26T04:10:40.766Z,1009.86
2019-05-26T04:11:40.679Z,1009.91
2019-05-26T04:12:40.619Z,1009.87
2019-05-26T04:13:40.539Z,1009.86
2019-05-26T04:14:40.432Z,1009.85
2019-05-26T04:15:40.354Z,1009.89
2019-05-26T04:16:40.266Z,1009.88
2019-05-26T04:17:40.205Z,1009.85
2019-05-26T04:18:40.103Z,1009.85
2019-05-26T04:19:40.029Z,1009.85
2019-05-26T04:20:39.941Z,1009.84
2019-05-26T04:21:39.866Z,1009.85
2019-05-26T04:22:39.779Z,1009.78
2019-05-26T04:23:39.706Z,1009.86
2019-05-26T04:24:39.618Z,1009.81
2019-05-26T04:25:39.529Z,1009.82
2019-05-26T04:26:39.468Z,1009.79
2019-05-26T04:27:39.366Z,1009.82
2019-05-26T04:28:39.294Z,1009.79
2019-05-26T04:29:39.208Z,1009.79
2019-05-26T04:30:39.117Z,1009.79
2019-05-26T04:31:39.043Z,1009.79
2019-05-26T04:32:38.955Z,1009.78
2019-05-26T04:33:38.882Z,1009.76
2019-05-26T04:34:38.793Z,1009.77
2019-05-26T04:35:38.724Z,1009.73
2019-05-26T04:36:38.634Z,1009.73
2019-05-26T04:37:38.554Z,1009.69
2019-05-26T04:38:38.468Z,1009.70
2019-05-26T04:39:38.381Z,1009.73
2019-05-26T04:40:38.306Z,1009.73
2019-05-26T04:41:38.227Z,1009.73
2019-05-26T04:42:38.151Z,1009.74
2019-05-26T04:43:38.057Z,1009.79
2019-05-26T04:44:38.094Z,1009.76
2019-05-26T04:45:37.893Z,1009.78
2019-05-26T04:46:37.819Z,1009.80
2019-05-26T04:47:37.739Z,1009.85
2019-05-26T04:48:37.662Z,1009.79
2019-05-26T04:49:37.922Z,1009.75
2019-05-26T04:50:37.481Z,1009.75
2019-05-26T04:51:37.442Z,1009.79
2019-05-26T04:52:37.320Z,1009.75
2019-05-26T04:53:37.245Z,1009.74
2019-05-26T04:54:37.159Z,1009.76
2019-05-26T04:55:37.083Z,1009.76
2019-05-26T04:56:36.998Z,1009.76
2019-05-26T04:57:36.924Z,1009.72
2019-05-26T04:58:36.832Z,1009.77
2019-05-26T04:59:36.763Z,1009.76
2019-05-26T05:00:36.678Z,1009.76
2019-05-26T05:01:36.609Z,1009.75
2019-05-26T05:02:36.510Z,1009.77
2019-05-26T05:03:36.423Z,1009.74
2019-05-26T05:04:36.350Z,1009.77
2019-05-26T05:05:36.259Z,1009.75
2019-05-26T05:06:36.184Z,1009.76
2019-05-26T05:07:36.097Z,1009.76
2019-05-26T05:08:36.022Z,1009.67
2019-05-26T05:09:35.934Z,1009.64
2019-05-26T05:10:42.327Z,1009.64
2019-05-26T05:11:35.776Z,1009.66
2019-05-26T05:12:35.696Z,1009.62
2019-05-26T05:13:35.609Z,1009.67
2019-05-26T05:14:35.536Z,1009.65
2019-05-26T05:15:35.447Z,1009.64
2019-05-26T05:16:35.371Z,1009.63
2019-05-26T05:17:35.291Z,1009.62
2019-05-26T05:18:35.209Z,1009.65
2019-05-26T05:19:35.123Z,1009.64
2019-05-26T05:20:35.048Z,1009.68
2019-05-26T05:21:34.962Z,1009.64
2019-05-26T05:22:34.885Z,1009.64
2019-05-26T05:23:34.797Z,1009.62
2019-05-26T05:24:34.724Z,1009.61
2019-05-26T05:25:34.636Z,1009.62
2019-05-26T05:26:34.560Z,1009.58
2019-05-26T05:27:34.485Z,1009.61
2019-05-26T05:28:34.402Z,1009.58
2019-05-26T05:29:34.310Z,1009.57
2019-05-26T05:30:34.236Z,1009.58
2019-05-26T05:31:34.148Z,1009.58
2019-05-26T05:32:34.073Z,1009.60
2019-05-26T05:33:33.986Z,1009.54
2019-05-26T05:34:33.912Z,1009.54
2019-05-26T05:35:33.823Z,1009.53
2019-05-26T05:36:33.748Z,1009.53
2019-05-26T05:37:33.673Z,1009.51
2019-05-26T05:38:33.590Z,1009.51
2019-05-26T05:39:33.504Z,1009.54
2019-05-26T05:40:33.436Z,1009.53
2019-05-26T05:41:33.338Z,1009.53
2019-05-26T05:42:33.264Z,1009.51
2019-05-26T05:43:33.174Z,1009.54
2019-05-26T05:44:33.100Z,1009.55
2019-05-26T05:45:33.013Z,1009.53
2019-05-26T05:46:32.937Z,1009.53
2019-05-26T05:47:32.855Z,1009.53
2019-05-26T05:48:32.774Z,1009.50
2019-05-26T05:49:32.699Z,1009.51
2019-05-26T05:50:32.613Z,1009.49
2019-05-26T05:51:32.539Z,1009.50
2019-05-26T05:52:32.471Z,1009.47
2019-05-26T05:53:32.376Z,1009.49
2019-05-26T05:54:32.288Z,1009.51
2019-05-26T05:55:32.213Z,1009.53
2019-05-26T05:56:32.126Z,1009.52
2019-05-26T05:57:32.051Z,1009.48
2019-05-26T05:58:31.977Z,1009.54
2019-05-26T05:59:31.890Z,1009.50
2019-05-26T06:00:31.814Z,1009.50
2019-05-26T06:01:31.726Z,1009.47
2019-05-26T06:02:31.667Z,1009.49
2019-05-26T06:03:31.565Z,1009.46
2019-05-26T06:04:31.490Z,1009.47
2019-05-26T06:05:31.418Z,1009.48
2019-05-26T06:06:31.327Z,1009.49
2019-05-26T06:07:31.255Z,1009.46
2019-05-26T06:08:31.165Z,1009.44
2019-05-26T06:09:31.092Z,1009.46
2019-05-26T06:10:31.051Z,1009.47
2019-05-26T06:11:30.927Z,1009.45
2019-05-26T06:12:30.852Z,1009.45
2019-05-26T06:13:30.765Z,1009.46
2019-05-26T06:14:30.727Z,1009.47
2019-05-26T06:15:30.615Z,1009.43
2019-05-26T06:16:30.528Z,1009.45
2019-05-26T06:17:30.546Z,1009.41
2019-05-26T06:18:30.367Z,1009.41
2019-05-26T06:19:30.298Z,1009.47
2019-05-26T06:20:30.206Z,1009.40
2019-05-26T06:21:30.128Z,1009.40
2019-05-26T06:22:30.042Z,1009.37
2019-05-26T06:23:29.966Z,1009.39
2019-05-26T06:24:29.891Z,1009.30
2019-05-26T06:25:29.811Z,1009.30
2019-05-26T06:26:29.731Z,1009.37
2019-05-26T06:27:29.649Z,1009.33
2019-05-26T06:28:29.566Z,1009.31
2019-05-26T06:29:29.537Z,1009.32
2019-05-26T06:30:29.404Z,1009.37
2019-05-26T06:31:29.330Z,1009.34
2019-05-26T06:32:29.248Z,1009.34
2019-05-26T06:33:29.168Z,1009.33
2019-05-26T06:34:29.099Z,1009.33
2019-05-26T06:35:32.474Z,1009.30
2019-05-26T06:36:28.932Z,1009.33
2019-05-26T06:37:28.843Z,1009.29
2019-05-26T06:38:28.768Z,1009.31
2019-05-26T06:39:28.695Z,1009.30
2019-05-26T06:40:28.606Z,1009.34
2019-05-26T06:41:33.407Z,1009.29
2019-05-26T06:42:28.455Z,1009.30
2019-05-26T06:43:28.371Z,1009.32
2019-05-26T06:44:28.294Z,1009.32
2019-05-26T06:45:28.208Z,1009.27
2019-05-26T06:46:28.132Z,1009.25
2019-05-26T06:47:28.057Z,1009.27
2019-05-26T06:48:27.972Z,1009.27
2019-05-26T06:49:27.895Z,1009.22
2019-05-26T06:50:27.807Z,1009.23
2019-05-26T06:51:27.732Z,1009.26
2019-05-26T06:52:27.656Z,1009.21
2019-05-26T06:53:27.570Z,1009.16
2019-05-26T06:54:27.495Z,1009.23
2019-05-26T06:55:27.420Z,1009.21
2019-05-26T06:56:27.331Z,1009.19
2019-05-26T06:57:27.258Z,1009.21
2019-05-26T06:58:27.188Z,1009.24
2019-05-26T06:59:27.096Z,1009.26
2019-05-26T07:00:27.027Z,1009.22
2019-05-26T07:01:26.945Z,1009.25
2019-05-26T07:02:26.858Z,1009.19
2019-05-26T07:03:26.787Z,1009.21
2019-05-26T07:04:26.708Z,1009.21
2019-05-26T07:05:26.621Z,1009.25
2019-05-26T07:06:26.546Z,1009.23
2019-05-26T07:07:26.471Z,1009.22
2019-05-26T07:08:26.383Z,1009.22
2019-05-26T07:09:26.346Z,1009.20
2019-05-26T07:10:26.234Z,1009.20
2019-05-26T07:11:26.146Z,1009.18
2019-05-26T07:12:26.071Z,1009.18
2019-05-26T07:13:26.002Z,1009.19
2019-05-26T07:14:25.909Z,1009.20
2019-05-26T07:15:25.841Z,1009.19
2019-05-26T07:16:37.717Z,1009.17
2019-05-26T07:17:25.697Z,1009.16
2019-05-26T07:18:25.597Z,1009.19
2019-05-26T07:19:25.527Z,1009.19
2019-05-26T07:20:25.447Z,1009.14
2019-05-26T07:21:25.375Z,1009.13
2019-05-26T07:22:25.285Z,1009.18
2019-05-26T07:23:25.210Z,1009.08
2019-05-26T07:24:29.020Z,1009.12
2019-05-26T07:25:25.059Z,1009.09
2019-05-26T07:26:24.972Z,1009.06
2019-05-26T07:27:24.898Z,1009.08
2019-05-26T07:28:24.825Z,1009.09
2019-05-26T07:29:24.749Z,1009.12
2019-05-26T07:30:24.660Z,1009.06
2019-05-26T07:31:24.591Z,1009.10
2019-05-26T07:32:24.523Z,1009.07
2019-05-26T07:33:24.435Z,1009.07
2019-05-26T07:34:24.360Z,1009.07
2019-05-26T07:35:24.274Z,1009.01
2019-05-26T07:36:24.199Z,1009.00
2019-05-26T07:37:24.123Z,1009.01
2019-05-26T07:38:24.049Z,1009.03
2019-05-26T07:39:23.975Z,1009.02
2019-05-26T07:40:23.888Z,1009.01
2019-05-26T07:41:23.812Z,1008.98
2019-05-26T07:42:23.736Z,1008.97
2019-05-26T07:43:27.226Z,1008.99
2019-05-26T07:44:23.586Z,1008.98
2019-05-26T07:45:23.514Z,1008.96
2019-05-26T07:46:23.437Z,1008.96
2019-05-26T07:47:23.350Z,1008.96
2019-05-26T07:48:23.286Z,1008.93
2019-05-26T07:49:23.200Z,1008.98
2019-05-26T07:50:23.125Z,1008.97
2019-05-26T07:51:23.050Z,1008.92
2019-05-26T07:52:22.975Z,1008.95
2019-05-26T07:53:22.903Z,1008.92
2019-05-26T07:54:25.667Z,1008.97
2019-05-26T07:55:22.739Z,1008.94
2019-05-26T07:56:22.665Z,1008.98
2019-05-26T07:57:22.588Z,1008.97
2019-05-26T07:58:22.513Z,1008.95
2019-05-26T07:59:22.438Z,1008.96
2019-05-26T08:00:22.376Z,1009.03
2019-05-26T08:01:24.345Z,1009.05
2019-05-26T08:02:22.213Z,1009.01
2019-05-26T08:03:22.139Z,1009.03
2019-05-26T08:04:22.065Z,1009.00
2019-05-26T08:05:21.989Z,1009.01
2019-05-26T08:06:21.907Z,1009.03
2019-05-26T08:07:23.211Z,1009.05
2019-05-26T08:08:21.751Z,1009.03
2019-05-26T08:09:21.677Z,1009.02
2019-05-26T08:10:21.606Z,1008.99
2019-05-26T08:11:21.528Z,1008.99
2019-05-26T08:12:26.856Z,1008.95
2019-05-26T08:13:21.380Z,1008.95
2019-05-26T08:14:21.303Z,1008.96
2019-05-26T08:15:21.231Z,1008.93
2019-05-26T08:16:21.154Z,1008.93
2019-05-26T08:17:21.078Z,1008.93
2019-05-26T08:18:21.003Z,1008.93
2019-05-26T08:19:20.916Z,1008.90
2019-05-26T08:20:20.840Z,1008.90
2019-05-26T08:21:20.765Z,1008.92
2019-05-26T08:22:20.703Z,1008.89
2019-05-26T08:23:20.616Z,1008.83
2019-05-26T08:24:20.603Z,1008.83
2019-05-26T08:25:20.466Z,1008.85
2019-05-26T08:26:20.391Z,1008.85
2019-05-26T08:27:20.317Z,1008.80
2019-05-26T08:28:20.254Z,1008.81
2019-05-26T08:29:20.166Z,1008.80
2019-05-26T08:30:20.082Z,1008.77
2019-05-26T08:31:20.004Z,1008.69
2019-05-26T08:32:19.929Z,1008.67
2019-05-26T08:33:19.857Z,1008.63
2019-05-26T08:34:19.780Z,1008.63
2019-05-26T08:35:19.704Z,1008.62
2019-05-26T08:36:19.629Z,1008.60
2019-05-26T08:37:19.556Z,1008.59
2019-05-26T08:38:19.481Z,1008.63
2019-05-26T08:39:19.405Z,1008.63
2019-05-26T08:40:19.330Z,1008.62
2019-05-26T08:41:19.256Z,1008.58
2019-05-26T08:42:26.734Z,1008.57
2019-05-26T08:43:19.094Z,1008.60
2019-05-26T08:44:19.017Z,1008.58
2019-05-26T08:45:21.460Z,1008.55
2019-05-26T08:46:18.868Z,1008.56
2019-05-26T08:47:18.793Z,1008.51
2019-05-26T08:48:18.719Z,1008.51
2019-05-26T08:49:18.646Z,1008.51
2019-05-26T08:50:18.571Z,1008.51
2019-05-26T08:51:18.494Z,1008.52
2019-05-26T08:52:18.418Z,1008.48
2019-05-26T08:53:18.344Z,1008.47
2019-05-26T08:54:18.321Z,1008.49
2019-05-26T08:55:18.193Z,1008.40
2019-05-26T08:56:18.119Z,1008.42
2019-05-26T08:57:18.044Z,1008.38
2019-05-26T08:58:17.975Z,1008.36
2019-05-26T08:59:17.894Z,1008.38
2019-05-26T09:00:17.819Z,1008.48
2019-05-26T09:01:17.744Z,1008.41
2019-05-26T09:02:17.670Z,1008.34
2019-05-26T09:03:17.595Z,1008.42
2019-05-26T09:04:17.520Z,1008.46
2019-05-26T09:05:17.446Z,1008.42
2019-05-26T09:06:17.371Z,1008.46
2019-05-26T09:07:17.299Z,1008.38
2019-05-26T09:08:17.233Z,1008.40
2019-05-26T09:09:17.147Z,1008.44
2019-05-26T09:10:17.075Z,1008.39
2019-05-26T09:11:16.995Z,1008.46
2019-05-26T09:12:16.934Z,1008.44
2019-05-26T09:13:16.846Z,1008.49
2019-05-26T09:14:16.771Z,1008.36
2019-05-26T09:15:16.696Z,1008.38
2019-05-26T09:16:16.634Z,1008.42
2019-05-26T09:17:16.547Z,1008.40
2019-05-26T09:18:16.473Z,1008.38
2019-05-26T09:19:16.409Z,1008.34
2019-05-26T09:20:16.335Z,1008.39
2019-05-26T09:21:16.261Z,1008.32
2019-05-26T09:22:16.184Z,1008.30
2019-05-26T09:23:16.114Z,1008.38
2019-05-26T09:24:16.035Z,1008.33
2019-05-26T09:25:15.960Z,1008.38
2019-05-26T09:26:15.887Z,1008.33
2019-05-26T09:27:15.822Z,1008.26
2019-05-26T09:28:15.760Z,1008.18
2019-05-26T09:29:15.672Z,1008.15
2019-05-26T09:30:15.597Z,1008.36
2019-05-26T09:31:15.523Z,1008.18
2019-05-26T09:32:15.448Z,1008.07
2019-05-26T09:33:15.374Z,1008.09
2019-05-26T09:34:15.299Z,1008.18
2019-05-26T09:35:15.237Z,1008.06
2019-05-26T09:36:15.161Z,1008.00
2019-05-26T09:37:15.086Z,1007.96
2019-05-26T09:38:15.012Z,1007.95
2019-05-26T09:39:14.937Z,1007.90
2019-05-26T09:40:14.861Z,1008.01
2019-05-26T09:41:14.788Z,1007.98
2019-05-26T09:42:14.712Z,1008.05
2019-05-26T09:43:16.605Z,1008.06
2019-05-26T09:44:14.576Z,1007.92
2019-05-26T09:45:14.519Z,1008.03
2019-05-26T09:46:14.424Z,1007.97
2019-05-26T09:47:14.349Z,1008.01
2019-05-26T09:48:14.276Z,1007.92
2019-05-26T09:49:14.199Z,1007.93
2019-05-26T09:50:14.124Z,1007.93
2019-05-26T09:51:14.051Z,1007.93
2019-05-26T09:52:13.975Z,1007.84
2019-05-26T09:53:13.901Z,1007.88
2019-05-26T09:54:13.830Z,1007.80
2019-05-26T09:55:13.754Z,1007.79
2019-05-26T09:56:13.676Z,1007.78
2019-05-26T09:57:13.603Z,1007.89
2019-05-26T09:58:13.540Z,1007.92
2019-05-26T09:59:13.464Z,1007.85
2019-05-26T10:00:16.083Z,1007.86
2019-05-26T10:01:13.314Z,1007.89
2019-05-26T10:02:13.240Z,1007.93
2019-05-26T10:03:13.168Z,1007.80
2019-05-26T10:04:13.089Z,1007.76
2019-05-26T10:05:13.015Z,1007.85
2019-05-26T10:06:12.939Z,1007.77
2019-05-26T10:07:15.808Z,1007.61
2019-05-26T10:08:12.789Z,1007.60
2019-05-26T10:09:12.714Z,1007.68
2019-05-26T10:10:12.644Z,1007.65
2019-05-26T10:11:12.569Z,1007.69
2019-05-26T10:12:12.489Z,1007.65
2019-05-26T10:13:12.416Z,1007.60
2019-05-26T10:14:12.341Z,1007.68
2019-05-26T10:15:12.267Z,1007.68
2019-05-26T10:16:12.195Z,1007.61
2019-05-26T10:17:12.115Z,1007.61
2019-05-26T10:18:12.101Z,1007.68
2019-05-26T10:19:11.966Z,1007.53
2019-05-26T10:20:11.903Z,1007.50
2019-05-26T10:21:11.828Z,1007.65
2019-05-26T10:22:11.752Z,1007.67
2019-05-26T10:23:11.679Z,1007.64
2019-05-26T10:24:11.604Z,1007.64
2019-05-26T10:25:11.536Z,1007.61
2019-05-26T10:26:11.454Z,1007.57
2019-05-26T10:27:11.394Z,1007.52
2019-05-26T10:28:11.305Z,1007.55
2019-05-26T10:29:11.229Z,1007.56
2019-05-26T10:30:11.155Z,1007.58
2019-05-26T10:31:11.081Z,1007.65
2019-05-26T10:32:11.013Z,1007.58
2019-05-26T10:33:10.929Z,1007.58
2019-05-26T10:34:13.630Z,1007.58
2019-05-26T10:35:10.781Z,1007.54
2019-05-26T10:36:10.706Z,1007.53
2019-05-26T10:37:10.631Z,1007.52
2019-05-26T10:38:10.568Z,1007.53
2019-05-26T10:39:10.492Z,1007.51
2019-05-26T10:40:10.418Z,1007.50
2019-05-26T10:41:10.344Z,1007.52
2019-05-26T10:42:10.268Z,1007.60
2019-05-26T10:43:10.194Z,1007.62
2019-05-26T10:44:10.119Z,1007.54
2019-05-26T10:45:10.043Z,1007.61
2019-05-26T10:46:09.969Z,1007.47
2019-05-26T10:47:09.894Z,1007.60
2019-05-26T10:48:09.821Z,1007.57
2019-05-26T10:49:09.749Z,1007.60
2019-05-26T10:50:09.682Z,1007.52
2019-05-26T10:51:09.607Z,1007.54
2019-05-26T10:52:09.531Z,1007.47
2019-05-26T10:53:09.457Z,1007.36
2019-05-26T10:54:09.382Z,1007.45
2019-05-26T10:55:09.321Z,1007.55
2019-05-26T10:56:09.244Z,1007.57
2019-05-26T10:57:09.182Z,1007.31
2019-05-26T10:58:09.095Z,1007.54
2019-05-26T10:59:09.032Z,1007.54
2019-05-26T11:00:08.962Z,1007.35
2019-05-26T11:01:08.883Z,1007.47
2019-05-26T11:02:08.809Z,1007.36
2019-05-26T11:03:08.746Z,1007.30
2019-05-26T11:04:08.732Z,1007.34
2019-05-26T11:05:08.609Z,1007.27
2019-05-26T11:06:08.533Z,1007.27
2019-05-26T11:07:08.458Z,1007.22
2019-05-26T11:08:08.397Z,1007.24
2019-05-26T11:09:08.321Z,1007.23
2019-05-26T11:10:08.259Z,1007.25
2019-05-26T11:11:08.183Z,1007.11
2019-05-26T11:12:08.134Z,1007.12
2019-05-26T11:13:08.046Z,1007.12
2019-05-26T11:14:07.973Z,1007.07
2019-05-26T11:15:07.948Z,1007.11
2019-05-26T11:16:07.834Z,1007.13
2019-05-26T11:17:07.775Z,1007.05
2019-05-26T11:18:07.684Z,1007.10
2019-05-26T11:19:07.628Z,1007.08
2019-05-26T11:20:07.547Z,1007.11
2019-05-26T11:21:07.473Z,1007.11
2019-05-26T11:22:07.400Z,1006.98
2019-05-26T11:23:07.335Z,1006.95
2019-05-26T11:24:07.260Z,1006.96
2019-05-26T11:25:07.185Z,1007.06
2019-05-26T11:26:07.110Z,1007.05
2019-05-26T11:27:11.701Z,1007.03
2019-05-26T11:28:06.974Z,1007.04
2019-05-26T11:29:06.898Z,1007.04
2019-05-26T11:30:06.823Z,1006.97
2019-05-26T11:31:06.760Z,1007.03
2019-05-26T11:32:06.699Z,1007.05
2019-05-26T11:33:06.616Z,1007.02
2019-05-26T11:34:06.608Z,1006.97
2019-05-26T11:35:06.460Z,1006.93
2019-05-26T11:36:06.398Z,1006.90
2019-05-26T11:37:06.312Z,1006.89
2019-05-26T11:38:06.238Z,1006.96
2019-05-26T11:39:06.180Z,1007.00
2019-05-26T11:40:06.103Z,1006.99
2019-05-26T11:41:06.025Z,1007.03
2019-05-26T11:42:13.202Z,1006.90
2019-05-26T11:43:16.492Z,1006.98
2019-05-26T11:44:17.454Z,1007.00
2019-05-26T11:45:05.725Z,1006.89
2019-05-26T11:46:05.664Z,1006.88
2019-05-26T11:47:05.603Z,1006.90
2019-05-26T11:48:05.512Z,1006.89
2019-05-26T11:49:05.439Z,1006.84
2019-05-26T11:50:05.363Z,1006.81
2019-05-26T11:51:05.303Z,1006.79
2019-05-26T11:52:05.239Z,1006.73
2019-05-26T11:53:05.162Z,1006.78
2019-05-26T11:54:05.075Z,1006.71
2019-05-26T11:55:05.013Z,1006.73
2019-05-26T11:56:04.937Z,1006.82
2019-05-26T11:57:04.865Z,1006.73
2019-05-26T11:58:04.802Z,1006.63
2019-05-26T11:59:04.728Z,1006.68
2019-05-26T12:00:04.698Z,1006.67
2019-05-26T12:01:04.577Z,1006.65
2019-05-26T12:02:04.518Z,1006.63
2019-05-26T12:03:04.446Z,1006.54
2019-05-26T12:04:04.368Z,1006.54